My Meet Scores
Anya Soriano, The Gymnastics Shop - MyMeetScores.com
Top100 | Top Teams | Upcoming Meets | Completed Meets | Latest | Add Scores | Help| Support | Bookmark and Share

Anya Soriano, The Gymnastics Shop
Personal Bests
LevelVault BarsBeamFloorAA
48.2008.575 8.3758.55033.350
58.7508.300 8.7508.95034.150
69.2259.150 9.2259.25036.475
78.8758.675 8.8009.35034.775
Meet Scores
Date Meet Team Session Level Division Vault Bars Beam Floor AA
2019-02-08 IGI Chicago Style 2019 The Gymnastics Shop 40 7 431 Rush L7 C 8.875 11 8.150 13 8.800 13 8.950 11 34.775 12
2019-01-18 2019 Bravo Classic The Gymnastics Shop 10A 7 Sr 8.400 14 6.900 13 8.750 8 9.000 14T 33.050 12
2019-01-11 St Jude Benefit Meet The Gymnastics Shop 4B 7 Sr B 8.600 11 8.675 7 8.050 13 9.350 8 34.675 8
2018-12-07 St. Nick Invite 2018 The Gymnastics Shop 6B 7 SrB 7.925 13 7.000 10T 8.175 10 9.350 1 32.450 10
2018-11-30 Ultimate Wish Classic The Gymnastics Shop 2 7 SR 8.475 21 8.475 12 8.575 13 8.850 11 34.375 12T
2018-02-23 Kinetic Classic The Gymnastics Shop 9 6 Older 8.700 46T 9.150 25T 8.800 49T 9.250 42T 35.900 43
2018-02-17 Women's Midwest Open The Gymnastics Shop 11 6 SR A 9.050 5T 9.100 2 9.225 5 9.100 3 36.475 2
2018-01-19 2018 Bravo Classic The Gymnastics Shop 2A 6 Sr 9.225 7 8.900 2 9.000 12T 9.150 10T 36.275 4
2018-01-12 St Jude Benefit Meet The Gymnastics Shop 6C 6 SrB 8.700 8 9.050 1T 8.900 8T 8.950 9 35.600 7
2017-12-15 2017 Aspire Classic The Gymnastics Shop 1 6 Sr B 8.550 16T 8.700 9 8.800 10 8.900 10T 34.950 10
2017-12-08 St. Nick Invite The Gymnastics Shop 5B 6 SrA 9.000 7T 8.600 3T 7.875 13 8.900 9 34.375 8
2017-12-01 Ultimate Wish Classic The Gymnastics Shop 1 6 SR 8.650 9 8.800 4 8.450 10 8.900 10T 34.800 7
2017-11-10 Illinois NAWGJ Judges Cup 2017 The Gymnastics Shop S3 6 All Ages 9.000 9T 8.850 11T 8.750 22T 8.900 38T 35.500 14
2017-03-30 2017 Illinois Level 3 & 5 State The Gymnastics Shop All 5 Sr C 8.575 22 8.050 23 8.725 18 8.525 22 33.875 21
2017-02-10 IGI Chicago Style Gymnastics Meet The Gymnastics Shop 523W 5 JrC 8.275 21 8.050 20 8.525 18 8.950 10 33.800 18
2017-01-13 Legacy Elite Winter Classic The Gymnastics Shop A1 5 JrA 8.400 7 7.700 12 8.200 11 8.925 7 33.225 9
2016-12-15 2016 Hawaiian Pineapple Sanction The Gymnastics Shop 4A 5 Ages 12+ 8.750 14 8.200 5 8.100 14 8.550 13T 33.600 10
2016-12-02 Ultimate Wish Classic The Gymnastics Shop 4 5 Sr A 8.650 12T 8.250 10 8.750 10T 8.500 13T 34.150 13
2016-11-11 2016 Illinois Judges Cup The Gymnastics Shop B2 5 11 Year Ol 8.225 16 8.300 11T 7.775 14 8.525 7 32.825 13
2016-03-10 2016 Illinois Level 4 State Meet The Gymnastics Shop All 4 Sr-A 7.850 28 8.575 18 8.375 24 8.550 23 33.350 21
2015-12-04 2015 Ultimate Wish Classic The Gymnastics Shop 10A 4 All 8.200 56 8.150 54 7.725 66 7.925 56 32.000 61
Get your scores on
a t-shirt, pin, or hoodie

Order by December 13

www.lazysuits.com